sensor_id;sensor_type;location;lat;lon;timestamp;P1;durP1;ratioP1;P2;durP2;ratioP2
76296;SDS011;65104;52.994;6.552;2023-07-13T00:01:31;5.70;;;1.80;;
76296;SDS011;65104;52.994;6.552;2023-07-13T00:03:56;3.25;;;1.30;;
76296;SDS011;65104;52.994;6.552;2023-07-13T00:06:23;4.60;;;1.50;;
76296;SDS011;65104;52.994;6.552;2023-07-13T00:08:50;4.97;;;1.25;;
76296;SDS011;65104;52.994;6.552;2023-07-13T00:11:17;2.95;;;1.20;;
76296;SDS011;65104;52.994;6.552;2023-07-13T00:13:42;4.43;;;1.38;;
76296;SDS011;65104;52.994;6.552;2023-07-13T00:16:10;3.35;;;1.83;;
76296;SDS011;65104;52.994;6.552;2023-07-13T00:18:38;5.25;;;1.60;;
76296;SDS011;65104;52.994;6.552;2023-07-13T00:21:06;3.63;;;2.08;;
76296;SDS011;65104;52.994;6.552;2023-07-13T00:23:32;5.60;;;1.50;;
76296;SDS011;65104;52.994;6.552;2023-07-13T00:26:00;3.15;;;1.48;;
76296;SDS011;65104;52.994;6.552;2023-07-13T00:28:26;10.45;;;1.70;;
76296;SDS011;65104;52.994;6.552;2023-07-13T00:30:52;4.43;;;1.83;;
76296;SDS011;65104;52.994;6.552;2023-07-13T00:33:18;3.67;;;1.30;;
76296;SDS011;65104;52.994;6.552;2023-07-13T00:35:45;5.00;;;1.38;;
76296;SDS011;65104;52.994;6.552;2023-07-13T00:38:11;5.97;;;2.00;;
76296;SDS011;65104;52.994;6.552;2023-07-13T00:40:37;6.30;;;1.77;;
76296;SDS011;65104;52.994;6.552;2023-07-13T00:43:02;2.70;;;1.80;;
76296;SDS011;65104;52.994;6.552;2023-07-13T00:47:55;5.15;;;1.92;;
76296;SDS011;65104;52.994;6.552;2023-07-13T00:50:22;2.05;;;1.70;;
76296;SDS011;65104;52.994;6.552;2023-07-13T00:52:51;5.22;;;1.58;;
76296;SDS011;65104;52.994;6.552;2023-07-13T00:55:24;3.17;;;1.45;;
76296;SDS011;65104;52.994;6.552;2023-07-13T00:57:50;4.65;;;1.85;;
76296;SDS011;65104;52.994;6.552;2023-07-13T01:00:15;4.97;;;1.67;;
76296;SDS011;65104;52.994;6.552;2023-07-13T01:02:42;8.88;;;2.25;;
76296;SDS011;65104;52.994;6.552;2023-07-13T01:07:38;8.00;;;1.73;;
76296;SDS011;65104;52.994;6.552;2023-07-13T01:10:05;6.25;;;1.70;;
76296;SDS011;65104;52.994;6.552;2023-07-13T01:14:58;6.97;;;1.97;;
76296;SDS011;65104;52.994;6.552;2023-07-13T01:17:29;6.40;;;2.17;;
76296;SDS011;65104;52.994;6.552;2023-07-13T01:19:55;5.72;;;1.85;;
76296;SDS011;65104;52.994;6.552;2023-07-13T01:22:22;8.75;;;1.80;;
76296;SDS011;65104;52.994;6.552;2023-07-13T01:24:51;6.38;;;1.50;;
76296;SDS011;65104;52.994;6.552;2023-07-13T01:27:21;4.65;;;1.60;;
76296;SDS011;65104;52.994;6.552;2023-07-13T01:29:50;8.20;;;1.90;;
76296;SDS011;65104;52.994;6.552;2023-07-13T01:32:19;3.63;;;1.73;;
76296;SDS011;65104;52.994;6.552;2023-07-13T01:34:46;5.95;;;1.60;;
76296;SDS011;65104;52.994;6.552;2023-07-13T01:37:13;4.13;;;1.58;;
76296;SDS011;65104;52.994;6.552;2023-07-13T01:39:39;4.03;;;1.73;;
76296;SDS011;65104;52.994;6.552;2023-07-13T01:42:05;4.00;;;1.77;;
76296;SDS011;65104;52.994;6.552;2023-07-13T01:44:31;6.60;;;1.85;;
76296;SDS011;65104;52.994;6.552;2023-07-13T01:46:57;3.92;;;1.60;;
76296;SDS011;65104;52.994;6.552;2023-07-13T01:49:22;4.60;;;1.90;;
76296;SDS011;65104;52.994;6.552;2023-07-13T01:51:47;5.32;;;1.67;;
76296;SDS011;65104;52.994;6.552;2023-07-13T01:54:13;9.57;;;2.13;;
76296;SDS011;65104;52.994;6.552;2023-07-13T01:56:38;6.40;;;2.03;;
76296;SDS011;65104;52.994;6.552;2023-07-13T01:59:05;5.28;;;1.52;;
76296;SDS011;65104;52.994;6.552;2023-07-13T02:01:31;9.02;;;1.88;;
76296;SDS011;65104;52.994;6.552;2023-07-13T02:03:56;5.93;;;1.73;;
76296;SDS011;65104;52.994;6.552;2023-07-13T02:06:21;7.65;;;1.75;;
76296;SDS011;65104;52.994;6.552;2023-07-13T02:08:47;4.00;;;1.60;;
76296;SDS011;65104;52.994;6.552;2023-07-13T02:11:13;6.53;;;1.50;;
76296;SDS011;65104;52.994;6.552;2023-07-13T02:13:39;5.32;;;1.58;;
76296;SDS011;65104;52.994;6.552;2023-07-13T02:16:04;6.05;;;1.90;;
76296;SDS011;65104;52.994;6.552;2023-07-13T02:18:31;7.85;;;2.30;;
76296;SDS011;65104;52.994;6.552;2023-07-13T02:20:56;5.07;;;1.95;;
76296;SDS011;65104;52.994;6.552;2023-07-13T02:23:22;7.90;;;1.92;;
76296;SDS011;65104;52.994;6.552;2023-07-13T02:25:47;6.20;;;2.03;;
76296;SDS011;65104;52.994;6.552;2023-07-13T02:28:14;7.40;;;1.88;;
76296;SDS011;65104;52.994;6.552;2023-07-13T02:30:39;3.97;;;1.80;;
76296;SDS011;65104;52.994;6.552;2023-07-13T02:33:06;5.47;;;2.38;;
76296;SDS011;65104;52.994;6.552;2023-07-13T02:35:31;5.65;;;1.63;;
76296;SDS011;65104;52.994;6.552;2023-07-13T02:37:57;9.32;;;1.77;;
76296;SDS011;65104;52.994;6.552;2023-07-13T02:40:22;7.68;;;2.35;;
76296;SDS011;65104;52.994;6.552;2023-07-13T02:42:48;3.65;;;1.75;;
76296;SDS011;65104;52.994;6.552;2023-07-13T02:45:14;10.63;;;1.65;;
76296;SDS011;65104;52.994;6.552;2023-07-13T02:47:40;4.03;;;1.67;;
76296;SDS011;65104;52.994;6.552;2023-07-13T02:50:08;3.72;;;1.60;;
76296;SDS011;65104;52.994;6.552;2023-07-13T02:54:59;4.60;;;1.87;;
76296;SDS011;65104;52.994;6.552;2023-07-13T02:57:24;4.60;;;1.50;;
76296;SDS011;65104;52.994;6.552;2023-07-13T02:59:50;5.63;;;1.80;;
76296;SDS011;65104;52.994;6.552;2023-07-13T03:02:16;6.25;;;2.10;;
76296;SDS011;65104;52.994;6.552;2023-07-13T03:04:42;5.70;;;1.70;;
76296;SDS011;65104;52.994;6.552;2023-07-13T03:07:09;8.57;;;2.20;;
76296;SDS011;65104;52.994;6.552;2023-07-13T03:09:35;4.50;;;2.03;;
76296;SDS011;65104;52.994;6.552;2023-07-13T03:12:02;5.85;;;1.92;;
76296;SDS011;65104;52.994;6.552;2023-07-13T03:14:28;5.30;;;2.00;;
76296;SDS011;65104;52.994;6.552;2023-07-13T03:16:53;7.65;;;2.08;;
76296;SDS011;65104;52.994;6.552;2023-07-13T03:19:20;3.33;;;1.85;;
76296;SDS011;65104;52.994;6.552;2023-07-13T03:21:46;7.07;;;1.60;;
76296;SDS011;65104;52.994;6.552;2023-07-13T03:24:11;7.45;;;2.58;;
76296;SDS011;65104;52.994;6.552;2023-07-13T03:26:36;6.00;;;2.08;;
76296;SDS011;65104;52.994;6.552;2023-07-13T03:29:03;5.70;;;2.05;;
76296;SDS011;65104;52.994;6.552;2023-07-13T03:31:32;5.55;;;1.95;;
76296;SDS011;65104;52.994;6.552;2023-07-13T03:33:59;6.20;;;1.77;;
76296;SDS011;65104;52.994;6.552;2023-07-13T03:36:25;4.45;;;1.90;;
76296;SDS011;65104;52.994;6.552;2023-07-13T03:38:53;5.28;;;1.77;;
76296;SDS011;65104;52.994;6.552;2023-07-13T03:41:20;7.90;;;2.30;;
76296;SDS011;65104;52.994;6.552;2023-07-13T03:43:47;5.22;;;1.80;;
76296;SDS011;65104;52.994;6.552;2023-07-13T03:46:14;4.88;;;2.17;;
76296;SDS011;65104;52.994;6.552;2023-07-13T03:48:43;2.85;;;1.63;;
76296;SDS011;65104;52.994;6.552;2023-07-13T03:51:11;5.18;;;1.75;;
76296;SDS011;65104;52.994;6.552;2023-07-13T03:53:40;4.80;;;1.90;;
76296;SDS011;65104;52.994;6.552;2023-07-13T03:56:09;5.93;;;2.40;;
76296;SDS011;65104;52.994;6.552;2023-07-13T03:58:36;5.72;;;2.00;;
76296;SDS011;65104;52.994;6.552;2023-07-13T04:01:06;5.82;;;2.20;;
76296;SDS011;65104;52.994;6.552;2023-07-13T04:03:33;7.97;;;2.42;;
76296;SDS011;65104;52.994;6.552;2023-07-13T04:06:00;6.55;;;2.20;;
76296;SDS011;65104;52.994;6.552;2023-07-13T04:08:30;7.38;;;2.20;;
76296;SDS011;65104;52.994;6.552;2023-07-13T04:10:58;3.40;;;2.10;;
76296;SDS011;65104;52.994;6.552;2023-07-13T04:13:28;6.50;;;2.13;;
76296;SDS011;65104;52.994;6.552;2023-07-13T04:15:54;6.07;;;1.90;;
76296;SDS011;65104;52.994;6.552;2023-07-13T04:18:21;8.20;;;1.75;;
76296;SDS011;65104;52.994;6.552;2023-07-13T04:20:47;6.90;;;2.17;;
76296;SDS011;65104;52.994;6.552;2023-07-13T04:23:14;6.78;;;1.92;;
76296;SDS011;65104;52.994;6.552;2023-07-13T04:25:42;7.93;;;2.42;;
76296;SDS011;65104;52.994;6.552;2023-07-13T04:28:10;3.10;;;1.73;;
76296;SDS011;65104;52.994;6.552;2023-07-13T04:30:36;4.88;;;1.73;;
76296;SDS011;65104;52.994;6.552;2023-07-13T04:33:02;5.57;;;2.85;;
76296;SDS011;65104;52.994;6.552;2023-07-13T04:35:29;5.93;;;2.05;;
76296;SDS011;65104;52.994;6.552;2023-07-13T04:37:55;5.72;;;1.92;;
76296;SDS011;65104;52.994;6.552;2023-07-13T04:40:20;4.93;;;1.70;;
76296;SDS011;65104;52.994;6.552;2023-07-13T04:42:46;6.15;;;2.22;;
76296;SDS011;65104;52.994;6.552;2023-07-13T04:45:13;5.88;;;2.30;;
76296;SDS011;65104;52.994;6.552;2023-07-13T04:47:40;4.32;;;1.85;;
76296;SDS011;65104;52.994;6.552;2023-07-13T04:50:07;6.55;;;2.67;;
76296;SDS011;65104;52.994;6.552;2023-07-13T04:52:34;3.90;;;1.73;;
76296;SDS011;65104;52.994;6.552;2023-07-13T04:55:00;3.95;;;2.03;;
76296;SDS011;65104;52.994;6.552;2023-07-13T04:57:27;5.63;;;2.03;;
76296;SDS011;65104;52.994;6.552;2023-07-13T04:59:53;5.57;;;2.17;;
76296;SDS011;65104;52.994;6.552;2023-07-13T05:02:20;7.28;;;2.15;;
76296;SDS011;65104;52.994;6.552;2023-07-13T05:04:46;9.65;;;2.47;;
76296;SDS011;65104;52.994;6.552;2023-07-13T05:07:14;4.97;;;1.90;;
76296;SDS011;65104;52.994;6.552;2023-07-13T05:09:40;7.90;;;2.20;;
76296;SDS011;65104;52.994;6.552;2023-07-13T05:12:07;8.73;;;2.22;;
76296;SDS011;65104;52.994;6.552;2023-07-13T05:14:33;4.10;;;1.95;;
76296;SDS011;65104;52.994;6.552;2023-07-13T05:16:59;6.80;;;2.40;;
76296;SDS011;65104;52.994;6.552;2023-07-13T05:19:27;5.80;;;2.08;;
76296;SDS011;65104;52.994;6.552;2023-07-13T05:21:52;5.30;;;2.47;;
76296;SDS011;65104;52.994;6.552;2023-07-13T05:24:19;4.78;;;2.25;;
76296;SDS011;65104;52.994;6.552;2023-07-13T05:26:44;11.05;;;2.42;;
76296;SDS011;65104;52.994;6.552;2023-07-13T05:29:11;4.07;;;1.85;;
76296;SDS011;65104;52.994;6.552;2023-07-13T05:31:37;6.55;;;2.58;;
76296;SDS011;65104;52.994;6.552;2023-07-13T05:34:03;7.18;;;2.17;;
76296;SDS011;65104;52.994;6.552;2023-07-13T05:36:28;12.98;;;2.63;;
76296;SDS011;65104;52.994;6.552;2023-07-13T05:38:54;6.95;;;2.58;;
76296;SDS011;65104;52.994;6.552;2023-07-13T05:41:19;7.07;;;2.53;;
76296;SDS011;65104;52.994;6.552;2023-07-13T05:43:44;8.70;;;2.70;;
76296;SDS011;65104;52.994;6.552;2023-07-13T05:46:11;7.57;;;2.08;;
76296;SDS011;65104;52.994;6.552;2023-07-13T05:48:36;8.43;;;1.80;;
76296;SDS011;65104;52.994;6.552;2023-07-13T05:51:03;5.18;;;1.90;;
76296;SDS011;65104;52.994;6.552;2023-07-13T05:53:28;3.80;;;1.92;;
76296;SDS011;65104;52.994;6.552;2023-07-13T05:55:54;7.07;;;2.40;;
76296;SDS011;65104;52.994;6.552;2023-07-13T05:58:21;7.55;;;2.60;;
76296;SDS011;65104;52.994;6.552;2023-07-13T06:00:47;6.50;;;2.53;;
76296;SDS011;65104;52.994;6.552;2023-07-13T06:03:14;4.20;;;2.30;;
76296;SDS011;65104;52.994;6.552;2023-07-13T06:05:39;11.68;;;2.20;;
76296;SDS011;65104;52.994;6.552;2023-07-13T06:08:06;6.78;;;2.17;;
76296;SDS011;65104;52.994;6.552;2023-07-13T06:10:32;6.13;;;2.13;;
76296;SDS011;65104;52.994;6.552;2023-07-13T06:12:58;5.63;;;1.83;;
76296;SDS011;65104;52.994;6.552;2023-07-13T06:15:24;5.40;;;1.98;;
76296;SDS011;65104;52.994;6.552;2023-07-13T06:17:49;9.00;;;1.98;;
76296;SDS011;65104;52.994;6.552;2023-07-13T06:20:16;7.90;;;2.13;;
76296;SDS011;65104;52.994;6.552;2023-07-13T06:22:41;4.57;;;2.30;;
76296;SDS011;65104;52.994;6.552;2023-07-13T06:25:08;3.08;;;1.80;;
76296;SDS011;65104;52.994;6.552;2023-07-13T06:27:34;6.22;;;1.92;;
76296;SDS011;65104;52.994;6.552;2023-07-13T06:29:59;6.90;;;2.40;;
76296;SDS011;65104;52.994;6.552;2023-07-13T06:32:25;3.65;;;2.10;;
76296;SDS011;65104;52.994;6.552;2023-07-13T06:34:50;5.32;;;2.38;;
76296;SDS011;65104;52.994;6.552;2023-07-13T06:37:18;6.80;;;1.92;;
76296;SDS011;65104;52.994;6.552;2023-07-13T06:39:43;3.22;;;1.63;;
76296;SDS011;65104;52.994;6.552;2023-07-13T06:42:09;5.68;;;1.73;;
76296;SDS011;65104;52.994;6.552;2023-07-13T06:44:35;5.15;;;2.40;;
76296;SDS011;65104;52.994;6.552;2023-07-13T06:47:01;6.78;;;2.05;;
76296;SDS011;65104;52.994;6.552;2023-07-13T06:49:27;3.92;;;1.70;;
76296;SDS011;65104;52.994;6.552;2023-07-13T06:51:53;6.00;;;1.98;;
76296;SDS011;65104;52.994;6.552;2023-07-13T06:54:19;4.60;;;1.83;;
76296;SDS011;65104;52.994;6.552;2023-07-13T06:56:45;4.75;;;1.95;;
76296;SDS011;65104;52.994;6.552;2023-07-13T06:59:13;2.40;;;1.50;;
76296;SDS011;65104;52.994;6.552;2023-07-13T07:01:38;5.45;;;2.20;;
76296;SDS011;65104;52.994;6.552;2023-07-13T07:04:05;5.88;;;1.85;;
76296;SDS011;65104;52.994;6.552;2023-07-13T07:06:33;4.22;;;2.13;;
76296;SDS011;65104;52.994;6.552;2023-07-13T07:08:59;3.30;;;1.65;;
76296;SDS011;65104;52.994;6.552;2023-07-13T07:11:25;6.00;;;1.65;;
76296;SDS011;65104;52.994;6.552;2023-07-13T07:13:51;4.45;;;1.40;;
76296;SDS011;65104;52.994;6.552;2023-07-13T07:16:18;4.30;;;1.88;;
76296;SDS011;65104;52.994;6.552;2023-07-13T07:18:44;2.10;;;1.20;;
76296;SDS011;65104;52.994;6.552;2023-07-13T07:21:12;5.60;;;1.70;;
76296;SDS011;65104;52.994;6.552;2023-07-13T07:23:38;4.20;;;1.58;;
76296;SDS011;65104;52.994;6.552;2023-07-13T07:26:05;4.10;;;1.63;;
76296;SDS011;65104;52.994;6.552;2023-07-13T07:28:30;3.92;;;1.40;;
76296;SDS011;65104;52.994;6.552;2023-07-13T07:30:57;3.60;;;1.58;;
76296;SDS011;65104;52.994;6.552;2023-07-13T07:33:23;3.95;;;2.13;;
76296;SDS011;65104;52.994;6.552;2023-07-13T07:35:49;4.15;;;1.85;;
76296;SDS011;65104;52.994;6.552;2023-07-13T07:38:14;4.05;;;1.70;;
76296;SDS011;65104;52.994;6.552;2023-07-13T07:40:40;4.03;;;1.98;;
76296;SDS011;65104;52.994;6.552;2023-07-13T07:43:07;3.85;;;1.65;;
76296;SDS011;65104;52.994;6.552;2023-07-13T07:45:33;3.67;;;1.45;;
76296;SDS011;65104;52.994;6.552;2023-07-13T07:47:59;3.30;;;1.52;;
76296;SDS011;65104;52.994;6.552;2023-07-13T07:50:25;4.80;;;1.83;;
76296;SDS011;65104;52.994;6.552;2023-07-13T07:52:51;3.58;;;1.80;;
76296;SDS011;65104;52.994;6.552;2023-07-13T07:55:16;6.95;;;2.15;;
76296;SDS011;65104;52.994;6.552;2023-07-13T07:57:42;4.72;;;1.73;;
76296;SDS011;65104;52.994;6.552;2023-07-13T08:00:09;4.25;;;2.30;;
76296;SDS011;65104;52.994;6.552;2023-07-13T08:02:35;5.30;;;2.08;;
76296;SDS011;65104;52.994;6.552;2023-07-13T08:05:03;3.10;;;2.00;;
76296;SDS011;65104;52.994;6.552;2023-07-13T08:07:30;4.07;;;2.10;;
76296;SDS011;65104;52.994;6.552;2023-07-13T08:09:56;4.13;;;2.17;;
76296;SDS011;65104;52.994;6.552;2023-07-13T08:12:21;3.67;;;2.67;;
76296;SDS011;65104;52.994;6.552;2023-07-13T08:14:49;4.15;;;2.60;;
76296;SDS011;65104;52.994;6.552;2023-07-13T08:17:19;6.80;;;2.90;;
76296;SDS011;65104;52.994;6.552;2023-07-13T08:19:45;4.05;;;2.53;;
76296;SDS011;65104;52.994;6.552;2023-07-13T08:22:12;4.57;;;2.45;;
76296;SDS011;65104;52.994;6.552;2023-07-13T08:24:38;6.20;;;3.08;;
76296;SDS011;65104;52.994;6.552;2023-07-13T08:27:05;7.40;;;3.22;;
76296;SDS011;65104;52.994;6.552;2023-07-13T08:29:31;6.03;;;3.47;;
76296;SDS011;65104;52.994;6.552;2023-07-13T08:31:59;8.77;;;3.58;;
76296;SDS011;65104;52.994;6.552;2023-07-13T08:34:25;6.68;;;2.88;;
76296;SDS011;65104;52.994;6.552;2023-07-13T08:36:51;7.93;;;3.60;;
76296;SDS011;65104;52.994;6.552;2023-07-13T08:39:17;7.13;;;3.08;;
76296;SDS011;65104;52.994;6.552;2023-07-13T08:41:46;5.93;;;2.85;;
76296;SDS011;65104;52.994;6.552;2023-07-13T08:44:26;5.63;;;1.73;;
76296;SDS011;65104;52.994;6.552;2023-07-13T08:47:02;3.72;;;1.70;;
76296;SDS011;65104;52.994;6.552;2023-07-13T08:49:28;2.60;;;1.63;;
76296;SDS011;65104;52.994;6.552;2023-07-13T08:51:58;2.08;;;1.27;;
76296;SDS011;65104;52.994;6.552;2023-07-13T08:54:46;3.50;;;1.52;;
76296;SDS011;65104;52.994;6.552;2023-07-13T08:57:21;1.98;;;1.45;;
76296;SDS011;65104;52.994;6.552;2023-07-13T08:59:56;4.30;;;1.70;;
76296;SDS011;65104;52.994;6.552;2023-07-13T09:02:26;3.13;;;1.70;;
76296;SDS011;65104;52.994;6.552;2023-07-13T09:15:48;3.45;;;2.15;;
76296;SDS011;65104;52.994;6.552;2023-07-13T09:21:30;5.15;;;2.60;;
76296;SDS011;65104;52.994;6.552;2023-07-13T09:24:01;4.25;;;2.38;;
76296;SDS011;65104;52.994;6.552;2023-07-13T09:26:56;3.40;;;2.17;;
76296;SDS011;65104;52.994;6.552;2023-07-13T09:29:30;3.10;;;2.40;;
76296;SDS011;65104;52.994;6.552;2023-07-13T09:32:02;5.53;;;1.92;;
76296;SDS011;65104;52.994;6.552;2023-07-13T09:34:53;2.80;;;2.17;;
76296;SDS011;65104;52.994;6.552;2023-07-13T09:37:21;4.85;;;2.40;;
76296;SDS011;65104;52.994;6.552;2023-07-13T09:39:48;4.82;;;2.88;;
76296;SDS011;65104;52.994;6.552;2023-07-13T09:47:18;3.28;;;2.58;;
76296;SDS011;65104;52.994;6.552;2023-07-13T09:49:48;3.25;;;2.08;;
76296;SDS011;65104;52.994;6.552;2023-07-13T09:52:21;3.90;;;2.17;;
76296;SDS011;65104;52.994;6.552;2023-07-13T09:54:48;2.60;;;2.40;;
76296;SDS011;65104;52.994;6.552;2023-07-13T09:57:16;3.40;;;2.20;;
76296;SDS011;65104;52.994;6.552;2023-07-13T09:59:45;5.45;;;2.45;;
76296;SDS011;65104;52.994;6.552;2023-07-13T10:02:32;3.95;;;2.30;;
76296;SDS011;65104;52.994;6.552;2023-07-13T10:05:06;4.63;;;1.60;;
76296;SDS011;65104;52.994;6.552;2023-07-13T10:07:43;5.10;;;1.83;;
76296;SDS011;65104;52.994;6.552;2023-07-13T10:10:14;5.05;;;2.28;;
76296;SDS011;65104;52.994;6.552;2023-07-13T10:12:43;4.30;;;2.65;;
76296;SDS011;65104;52.994;6.552;2023-07-13T10:15:15;2.45;;;1.80;;
76296;SDS011;65104;52.994;6.552;2023-07-13T10:17:43;4.68;;;2.10;;
76296;SDS011;65104;52.994;6.552;2023-07-13T10:20:10;3.20;;;2.42;;
76296;SDS011;65104;52.994;6.552;2023-07-13T10:25:26;2.55;;;2.03;;
76296;SDS011;65104;52.994;6.552;2023-07-13T10:28:00;3.00;;;2.03;;
76296;SDS011;65104;52.994;6.552;2023-07-13T10:30:56;4.93;;;2.53;;
76296;SDS011;65104;52.994;6.552;2023-07-13T10:33:26;5.63;;;2.78;;
76296;SDS011;65104;52.994;6.552;2023-07-13T10:36:03;5.72;;;2.22;;
76296;SDS011;65104;52.994;6.552;2023-07-13T10:38:37;6.35;;;2.78;;
76296;SDS011;65104;52.994;6.552;2023-07-13T10:41:04;9.52;;;3.38;;
76296;SDS011;65104;52.994;6.552;2023-07-13T10:43:45;8.88;;;3.42;;
76296;SDS011;65104;52.994;6.552;2023-07-13T10:46:16;4.82;;;3.00;;
76296;SDS011;65104;52.994;6.552;2023-07-13T10:48:44;3.97;;;2.33;;
76296;SDS011;65104;52.994;6.552;2023-07-13T10:51:14;4.43;;;2.97;;
76296;SDS011;65104;52.994;6.552;2023-07-13T10:53:43;4.05;;;2.67;;
76296;SDS011;65104;52.994;6.552;2023-07-13T10:56:28;2.95;;;2.42;;
76296;SDS011;65104;52.994;6.552;2023-07-13T10:59:01;4.65;;;2.45;;
76296;SDS011;65104;52.994;6.552;2023-07-13T11:01:40;3.03;;;2.35;;
76296;SDS011;65104;52.994;6.552;2023-07-13T11:04:27;4.15;;;2.45;;
76296;SDS011;65104;52.994;6.552;2023-07-13T11:07:10;4.35;;;2.30;;
76296;SDS011;65104;52.994;6.552;2023-07-13T11:09:43;3.25;;;2.17;;
76296;SDS011;65104;52.994;6.552;2023-07-13T11:15:04;3.40;;;1.65;;
76296;SDS011;65104;52.994;6.552;2023-07-13T11:17:37;2.33;;;1.65;;
76296;SDS011;65104;52.994;6.552;2023-07-13T11:22:44;2.08;;;1.35;;
76296;SDS011;65104;52.994;6.552;2023-07-13T11:28:27;1.83;;;1.40;;
76296;SDS011;65104;52.994;6.552;2023-07-13T11:33:28;5.22;;;1.83;;
76296;SDS011;65104;52.994;6.552;2023-07-13T11:36:17;4.55;;;1.45;;
76296;SDS011;65104;52.994;6.552;2023-07-13T11:38:58;2.67;;;1.17;;
76296;SDS011;65104;52.994;6.552;2023-07-13T11:44:13;1.73;;;1.15;;
76296;SDS011;65104;52.994;6.552;2023-07-13T11:46:48;1.58;;;1.20;;
76296;SDS011;65104;52.994;6.552;2023-07-13T11:49:16;1.60;;;1.17;;
76296;SDS011;65104;52.994;6.552;2023-07-13T11:51:43;2.42;;;1.45;;
76296;SDS011;65104;52.994;6.552;2023-07-13T11:54:15;2.63;;;1.00;;
76296;SDS011;65104;52.994;6.552;2023-07-13T11:56:51;2.38;;;1.08;;
76296;SDS011;65104;52.994;6.552;2023-07-13T11:59:16;2.83;;;1.00;;
76296;SDS011;65104;52.994;6.552;2023-07-13T12:01:48;1.98;;;0.82;;
76296;SDS011;65104;52.994;6.552;2023-07-13T12:04:28;3.30;;;1.67;;
76296;SDS011;65104;52.994;6.552;2023-07-13T12:07:11;3.22;;;1.20;;
76296;SDS011;65104;52.994;6.552;2023-07-13T12:09:41;1.52;;;1.05;;
76296;SDS011;65104;52.994;6.552;2023-07-13T12:12:11;2.92;;;1.20;;
76296;SDS011;65104;52.994;6.552;2023-07-13T12:14:42;2.15;;;0.90;;
76296;SDS011;65104;52.994;6.552;2023-07-13T12:17:16;0.95;;;0.65;;
76296;SDS011;65104;52.994;6.552;2023-07-13T12:19:45;1.48;;;1.10;;
76296;SDS011;65104;52.994;6.552;2023-07-13T12:22:14;2.83;;;1.10;;
76296;SDS011;65104;52.994;6.552;2023-07-13T12:24:41;1.33;;;0.93;;
76296;SDS011;65104;52.994;6.552;2023-07-13T12:27:23;2.15;;;1.20;;
76296;SDS011;65104;52.994;6.552;2023-07-13T12:30:36;2.38;;;0.82;;
76296;SDS011;65104;52.994;6.552;2023-07-13T12:33:06;1.42;;;0.73;;
76296;SDS011;65104;52.994;6.552;2023-07-13T12:35:39;1.33;;;0.85;;
76296;SDS011;65104;52.994;6.552;2023-07-13T12:38:10;2.78;;;0.90;;
76296;SDS011;65104;52.994;6.552;2023-07-13T12:40:37;1.50;;;0.70;;
76296;SDS011;65104;52.994;6.552;2023-07-13T12:43:05;2.60;;;1.23;;
76296;SDS011;65104;52.994;6.552;2023-07-13T12:45:57;1.55;;;0.85;;
76296;SDS011;65104;52.994;6.552;2023-07-13T12:48:25;3.92;;;0.98;;
76296;SDS011;65104;52.994;6.552;2023-07-13T12:50:51;2.67;;;1.00;;
76296;SDS011;65104;52.994;6.552;2023-07-13T12:53:21;2.05;;;0.93;;
76296;SDS011;65104;52.994;6.552;2023-07-13T12:55:50;2.95;;;0.88;;
76296;SDS011;65104;52.994;6.552;2023-07-13T13:01:09;1.58;;;0.90;;
76296;SDS011;65104;52.994;6.552;2023-07-13T13:03:38;1.40;;;0.90;;
76296;SDS011;65104;52.994;6.552;2023-07-13T13:06:20;1.55;;;0.57;;
76296;SDS011;65104;52.994;6.552;2023-07-13T13:08:55;2.35;;;1.10;;
76296;SDS011;65104;52.994;6.552;2023-07-13T13:11:27;1.45;;;1.10;;
76296;SDS011;65104;52.994;6.552;2023-07-13T13:13:55;0.98;;;0.70;;
76296;SDS011;65104;52.994;6.552;2023-07-13T13:18:45;1.17;;;0.63;;
76296;SDS011;65104;52.994;6.552;2023-07-13T13:21:11;1.02;;;0.82;;
76296;SDS011;65104;52.994;6.552;2023-07-13T13:23:37;2.20;;;0.90;;
76296;SDS011;65104;52.994;6.552;2023-07-13T13:26:05;1.63;;;0.80;;
76296;SDS011;65104;52.994;6.552;2023-07-13T13:31:04;1.05;;;0.40;;
76296;SDS011;65104;52.994;6.552;2023-07-13T13:33:30;0.80;;;0.70;;
76296;SDS011;65104;52.994;6.552;2023-07-13T13:35:55;2.33;;;0.70;;
76296;SDS011;65104;52.994;6.552;2023-07-13T13:38:23;2.47;;;1.25;;
76296;SDS011;65104;52.994;6.552;2023-07-13T13:40:51;2.03;;;0.98;;
76296;SDS011;65104;52.994;6.552;2023-07-13T13:43:22;1.98;;;0.80;;
76296;SDS011;65104;52.994;6.552;2023-07-13T13:45:52;1.38;;;0.70;;
76296;SDS011;65104;52.994;6.552;2023-07-13T13:48:23;2.28;;;0.80;;
76296;SDS011;65104;52.994;6.552;2023-07-13T13:50:58;2.63;;;0.90;;
76296;SDS011;65104;52.994;6.552;2023-07-13T13:53:25;0.68;;;0.63;;
76296;SDS011;65104;52.994;6.552;2023-07-13T13:55:50;1.17;;;0.75;;
76296;SDS011;65104;52.994;6.552;2023-07-13T13:58:17;0.88;;;0.63;;
76296;SDS011;65104;52.994;6.552;2023-07-13T14:00:45;1.02;;;0.63;;
76296;SDS011;65104;52.994;6.552;2023-07-13T14:03:15;4.03;;;0.70;;
76296;SDS011;65104;52.994;6.552;2023-07-13T14:05:43;1.30;;;0.70;;
76296;SDS011;65104;52.994;6.552;2023-07-13T14:08:15;1.10;;;0.70;;
76296;SDS011;65104;52.994;6.552;2023-07-13T14:10:44;2.38;;;0.80;;
76296;SDS011;65104;52.994;6.552;2023-07-13T14:15:48;3.72;;;1.02;;
76296;SDS011;65104;52.994;6.552;2023-07-13T14:18:14;2.60;;;0.90;;
76296;SDS011;65104;52.994;6.552;2023-07-13T14:20:43;1.75;;;0.65;;
76296;SDS011;65104;52.994;6.552;2023-07-13T14:23:12;2.08;;;0.60;;
76296;SDS011;65104;52.994;6.552;2023-07-13T14:25:39;1.00;;;0.80;;
76296;SDS011;65104;52.994;6.552;2023-07-13T14:28:27;1.42;;;0.68;;
76296;SDS011;65104;52.994;6.552;2023-07-13T14:30:52;1.38;;;0.80;;
76296;SDS011;65104;52.994;6.552;2023-07-13T14:33:20;2.47;;;0.90;;
76296;SDS011;65104;52.994;6.552;2023-07-13T14:35:46;2.47;;;1.33;;
76296;SDS011;65104;52.994;6.552;2023-07-13T14:38:13;4.03;;;0.98;;
76296;SDS011;65104;52.994;6.552;2023-07-13T14:40:41;2.75;;;0.98;;
76296;SDS011;65104;52.994;6.552;2023-07-13T14:43:14;3.13;;;0.80;;
76296;SDS011;65104;52.994;6.552;2023-07-13T14:45:42;1.90;;;0.73;;
76296;SDS011;65104;52.994;6.552;2023-07-13T14:48:15;2.20;;;0.98;;
76296;SDS011;65104;52.994;6.552;2023-07-13T14:50:44;1.27;;;0.82;;
76296;SDS011;65104;52.994;6.552;2023-07-13T14:53:11;3.25;;;1.02;;
76296;SDS011;65104;52.994;6.552;2023-07-13T14:55:37;1.58;;;0.75;;
76296;SDS011;65104;52.994;6.552;2023-07-13T14:58:05;1.13;;;0.52;;
76296;SDS011;65104;52.994;6.552;2023-07-13T15:00:30;3.90;;;0.90;;
76296;SDS011;65104;52.994;6.552;2023-07-13T15:02:57;1.38;;;0.80;;
76296;SDS011;65104;52.994;6.552;2023-07-13T15:05:26;3.33;;;0.80;;
76296;SDS011;65104;52.994;6.552;2023-07-13T15:07:59;2.58;;;1.00;;
76296;SDS011;65104;52.994;6.552;2023-07-13T15:10:29;2.95;;;0.90;;
76296;SDS011;65104;52.994;6.552;2023-07-13T15:15:43;2.13;;;0.90;;
76296;SDS011;65104;52.994;6.552;2023-07-13T15:18:12;1.23;;;0.75;;
76296;SDS011;65104;52.994;6.552;2023-07-13T15:20:42;2.63;;;0.77;;
76296;SDS011;65104;52.994;6.552;2023-07-13T15:23:11;2.33;;;0.90;;
76296;SDS011;65104;52.994;6.552;2023-07-13T15:25:40;1.48;;;0.52;;
76296;SDS011;65104;52.994;6.552;2023-07-13T15:28:07;2.03;;;0.90;;
76296;SDS011;65104;52.994;6.552;2023-07-13T15:30:38;3.17;;;1.02;;
76296;SDS011;65104;52.994;6.552;2023-07-13T15:33:15;2.40;;;0.70;;
76296;SDS011;65104;52.994;6.552;2023-07-13T15:35:43;1.48;;;0.63;;
76296;SDS011;65104;52.994;6.552;2023-07-13T15:38:16;1.40;;;0.65;;
76296;SDS011;65104;52.994;6.552;2023-07-13T15:40:46;1.58;;;0.80;;
76296;SDS011;65104;52.994;6.552;2023-07-13T15:43:18;2.28;;;1.00;;
76296;SDS011;65104;52.994;6.552;2023-07-13T15:45:45;3.35;;;1.15;;
76296;SDS011;65104;52.994;6.552;2023-07-13T15:48:21;2.13;;;0.73;;
76296;SDS011;65104;52.994;6.552;2023-07-13T15:53:20;3.03;;;0.98;;
76296;SDS011;65104;52.994;6.552;2023-07-13T15:55:48;2.17;;;0.95;;
76296;SDS011;65104;52.994;6.552;2023-07-13T15:58:16;3.25;;;1.55;;